Flag for Iran

Past Weather in 35°42'03"N, 51°22'40"E, Iran — Yesterday and Last 2 Weeks

Currently: 32 °F. Snow. Fog. (Weather station: Tehran-Mehrabad, Iran). See more current weather

Past Weather in 35°42'03"N, 51°22'40"E — Graph

°F

35°42'03"N, 51°22'40"E Temperature Yesterday

Maximum temperature yesterday: 54 °F (at 12:00 pm)
Minimum temperature yesterday: 45 °F (at 7:30 am)
Average temperature yesterday: 50 °F

High & Low Weather Summary for the Past Weeks

 TemperatureHumidityPressure
High68 °F (Feb 15, 3:00 pm)100% (Feb 25, 1:00 pm)30.27 "Hg (Feb 25, 1:00 pm)
Low32 °F (Feb 25, 8:00 am)13% (Feb 10, 4:30 pm)29.86 "Hg (Feb 18, 3:00 am)
Average51 °F45%30.09 "Hg
* Reported Feb 10 4:30 pm — Feb 25 4:43 pm, 35°42'03"N, 51°22'40"E. Weather by CustomWeather, © 2024

Note: Actual official high and low records may vary slightly from our data, if they occured in-between our weather recording intervals... More about our weather records

35°42'03"N, 51°22'40"E Weather History for the Previous 24 Hours

Scroll right to see more
 ConditionsComfort  
Time TempWeatherWind HumidityBarometerVisibility
4:43 pm
Sun, Feb 25
34 °FLight snow. Fog.12 mph93%30.07 "Hg1 mi
4:30 pm34 °FSnow flurries. Fog.12 mph93%30.07 "Hg1 mi
4:00 pm34 °FLight rain. More clouds than sun.16 mph93%30.07 "Hg1 mi
3:30 pm34 °FLight rain. Fog.9 mph93%30.07 "Hg1 mi
3:00 pm32 °FRain. Fog.9 mph100%30.07 "Hg0 mi
2:30 pm32 °FLight snow. Fog.9 mph100%30.07 "Hg0 mi
2:00 pm32 °FSnow. Fog.12 mph100%30.07 "Hg0 mi
1:30 pm32 °FSnow. Fog.14 mph93%30.07 "Hg0 mi
1:00 pm32 °FSnow. Fog.12 mph100%30.07 "Hg0 mi
12:30 pm32 °FSnow. Fog.12 mph93%30.09 "Hg0 mi
12:00 pm32 °FSnow. Fog.12 mph93%30.09 "Hg0 mi
11:40 am32 °FSnow. Fog.12 mph93%30.09 "Hg0 mi
11:30 am32 °FSnow. Fog.14 mph93%30.09 "Hg0 mi
11:00 am32 °FSnow. Fog.12 mph93%30.09 "Hg0 mi
10:30 am32 °FSnow. Fog.12 mph93%30.09 "Hg1 mi
10:00 am32 °FSnow. Fog.12 mph93%30.09 "Hg1 mi
9:30 am32 °FSnow. Fog.14 mph93%30.09 "Hg1 mi
9:00 am32 °FSnow. Fog.14 mph93%30.09 "Hg1 mi
8:30 am32 °FSnow. Ice fog.14 mph93%30.09 "Hg1 mi
8:00 am32 °FLight snow. Ice fog.12 mph93%30.07 "Hg1 mi
7:44 am34 °FLight snow. Fog.12 mph87%30.07 "Hg1 mi
7:30 am34 °FLight rain. Fog.12 mph87%30.07 "Hg1 mi
7:00 am36 °FLight rain. Fog.9 mph87%30.04 "Hg2 mi
6:30 am34 °FLight rain. Fog.9 mph93%30.04 "Hg2 mi
6:00 am34 °FLight rain. Fog.9 mph87%30.04 "Hg2 mi
5:30 am36 °FLight rain. Fog.9 mph87%30.04 "Hg2 mi
5:00 am36 °FLight rain. Fog.12 mph87%30.04 "Hg2 mi
4:30 am36 °FLight rain. Fog.12 mph87%30.04 "Hg3 mi
3:00 am39 °FPartly cloudy.12 mph61%30.04 "Hg4 mi
2:30 am41 °FPartly cloudy.9 mph57%30.04 "Hg4 mi
2:00 am41 °FPartly cloudy.12 mph53%30.04 "Hg4 mi
1:30 am41 °FPartly cloudy.12 mph57%30.04 "Hg4 mi
1:00 am43 °FPartly cloudy.14 mph53%30.04 "Hg4 mi
12:30 am48 °FPartly cloudy.5 mph43%30.04 "Hg4 mi
12:00 am45 °FPartly cloudy.5 mph53%30.04 "Hg4 mi
11:30 pm
Sat, Feb 24
45 °FPartly cloudy.9 mph49%30.04 "Hg4 mi
11:00 pm45 °FPartly cloudy.12 mph53%30.04 "Hg4 mi
10:30 pm46 °FPartly cloudy.7 mph50%30.04 "Hg4 mi
10:00 pm48 °FPartly cloudy.7 mph46%30.04 "Hg4 mi
9:30 pm46 °FPartly cloudy.9 mph50%30.07 "Hg4 mi
9:00 pm48 °FPartly cloudy.12 mph43%30.07 "Hg4 mi
8:30 pm48 °FPassing clouds.9 mph46%30.07 "Hg4 mi
8:00 pm50 °FPartly cloudy.9 mph43%30.07 "Hg4 mi
7:30 pm50 °FPassing clouds.9 mph43%30.07 "Hg4 mi
7:00 pm52 °FPartly cloudy.7 mph41%30.07 "Hg3 mi
6:30 pm52 °FPartly cloudy.7 mph41%30.07 "Hg2 mi
6:00 pm52 °FBroken clouds.7 mph41%30.07 "Hg3 mi
Weather by CustomWeather, © 2024

See weather overview